Bonanza, Utah
Current Conditions -  °F | °C
As of 10:53 PM on Wednesday 28 Jan 2015 (Local Time) from KVEL Reporting Station
Scattered Clouds Scattered Clouds  
Wind Chill: 29°   Ceiling: Unl
Heat Index: 33°   Visibility: 10mi
Dew Point: 26°   Wind: 5mph
Humidity: 75%   Direction: 280°W
Pressure: 30.33"   Gusts: NA
Location:  40.02°N, 109.18°W
Report Text: KVEL 290553Z AUTO 28004KT 10SM SCT070 01/M03 A3033 RMK AO2 SLP277 T00061033 10094 20006 53010
Loading
Personal Weather Stations






























Interactive Weather Map New forecast layout! Learn more

10-Day Weather Forecast

Advertisements
Track Severe Weather on mobile